createdAt,value
2022-08-26T00:00:07.758Z,96162.81
2022-08-26T00:03:01.590Z,96158.52
2022-08-26T00:05:31.115Z,96152.73
2022-08-26T00:07:59.293Z,96151.85
2022-08-26T00:10:27.572Z,96156.69
2022-08-26T00:12:55.756Z,96153.84
2022-08-26T00:15:25.395Z,96150.44
2022-08-26T00:17:53.692Z,96148.61
2022-08-26T00:20:24.069Z,96146.27
2022-08-26T00:22:52.522Z,96148.45
2022-08-26T00:25:21.272Z,96147.04
2022-08-26T00:27:49.469Z,96145.63
2022-08-26T00:30:22.823Z,96144.33
2022-08-26T00:32:53.083Z,96146.84
2022-08-26T00:35:21.990Z,96143.61
2022-08-26T00:37:51.454Z,96137.54
2022-08-26T00:40:21.840Z,96140.06
2022-08-26T00:42:50.231Z,96134.71
2022-08-26T00:45:18.492Z,96139.60
2022-08-26T00:47:48.917Z,96138.34
2022-08-26T00:50:19.413Z,96138.35
2022-08-26T00:52:48.336Z,96136.48
2022-08-26T00:55:24.648Z,96136.38
2022-08-26T00:57:56.254Z,96141.79
2022-08-26T01:00:26.760Z,96141.23
2022-08-26T01:02:56.292Z,96137.77
2022-08-26T01:05:25.604Z,96140.27
2022-08-26T01:07:54.098Z,96140.48
2022-08-26T01:10:28.366Z,96141.00
2022-08-26T01:12:58.085Z,96140.38
2022-08-26T01:15:32.967Z,96142.52
2022-08-26T01:18:03.127Z,96145.55
2022-08-26T01:20:40.331Z,96144.15
2022-08-26T01:23:10.649Z,96139.05
2022-08-26T01:25:43.144Z,96138.83
2022-08-26T01:28:21.987Z,96139.87
2022-08-26T01:30:52.830Z,96140.81
2022-08-26T01:33:23.778Z,96139.27
2022-08-26T01:35:52.614Z,96137.21
2022-08-26T01:38:23.652Z,96135.37
2022-08-26T01:40:53.637Z,96136.78
2022-08-26T01:43:25.387Z,96134.77
2022-08-26T01:45:57.193Z,96140.91
2022-08-26T01:48:28.815Z,96142.73
2022-08-26T01:50:57.676Z,96145.97
2022-08-26T01:53:26.646Z,96142.43
2022-08-26T01:55:59.110Z,96141.19
2022-08-26T01:58:33.271Z,96140.64
2022-08-26T02:01:01.727Z,96139.92
2022-08-26T02:03:31.117Z,96138.88
2022-08-26T02:06:04.228Z,96142.70
2022-08-26T02:08:37.171Z,96139.83
2022-08-26T02:11:05.707Z,96139.81
2022-08-26T02:13:35.262Z,96138.18
2022-08-26T02:16:04.162Z,96135.98
2022-08-26T02:18:35.264Z,96137.33
2022-08-26T02:21:03.935Z,96143.65
2022-08-26T02:23:35.195Z,96145.58
2022-08-26T02:26:17.829Z,96144.86
2022-08-26T02:29:00.273Z,96146.45
2022-08-26T02:31:29.124Z,96144.96
2022-08-26T02:34:07.157Z,96143.09
2022-08-26T02:36:39.109Z,96145.23
2022-08-26T02:39:08.445Z,96147.52
2022-08-26T02:41:44.080Z,96143.92
2022-08-26T02:44:13.700Z,96141.65
2022-08-26T02:46:41.980Z,96142.88
2022-08-26T02:49:17.142Z,96141.48
2022-08-26T02:51:45.993Z,96142.86
2022-08-26T02:54:14.225Z,96140.74
2022-08-26T02:56:43.002Z,96139.00
2022-08-26T02:59:14.268Z,96134.94
2022-08-26T03:01:42.855Z,96136.33
2022-08-26T03:04:12.338Z,96137.23
2022-08-26T03:06:41.472Z,96137.08
2022-08-26T03:09:09.920Z,96140.11
2022-08-26T03:11:42.794Z,96141.33
2022-08-26T03:14:11.982Z,96141.50
2022-08-26T03:16:41.124Z,96139.65
2022-08-26T03:19:10.289Z,96141.19
2022-08-26T03:21:39.177Z,96143.67
2022-08-26T03:24:10.310Z,96149.89
2022-08-26T03:26:38.625Z,96148.77
2022-08-26T03:29:25.880Z,96152.95
2022-08-26T03:31:54.436Z,96148.64
2022-08-26T03:34:23.186Z,96147.33
2022-08-26T03:36:51.381Z,96145.33
2022-08-26T03:39:19.630Z,96146.88
2022-08-26T03:41:48.148Z,96144.63
2022-08-26T03:44:16.299Z,96145.56
2022-08-26T03:46:45.760Z,96149.52
2022-08-26T03:49:13.957Z,96147.18
2022-08-26T03:51:43.508Z,96146.70
2022-08-26T03:54:13.077Z,96147.61
2022-08-26T03:56:41.259Z,96145.79
2022-08-26T03:59:10.061Z,96147.94
2022-08-26T04:01:38.282Z,96146.50
2022-08-26T04:04:06.745Z,96150.91
2022-08-26T04:06:37.247Z,96154.44
2022-08-26T04:09:07.660Z,96150.33
2022-08-26T04:11:38.683Z,96149.71
2022-08-26T04:14:09.325Z,96144.91
2022-08-26T04:16:39.206Z,96146.93
2022-08-26T04:19:07.920Z,96146.95
2022-08-26T04:21:38.490Z,96149.77
2022-08-26T04:24:11.358Z,96147.24
2022-08-26T04:26:42.740Z,96147.77
2022-08-26T04:29:14.558Z,96147.48
2022-08-26T04:31:42.788Z,96148.91
2022-08-26T04:34:11.212Z,96146.81
2022-08-26T04:36:43.407Z,96142.21
2022-08-26T04:39:12.702Z,96146.24
2022-08-26T04:41:40.898Z,96146.36
2022-08-26T04:44:09.125Z,96147.07
2022-08-26T04:46:39.814Z,96146.63
2022-08-26T04:49:12.169Z,96148.84
2022-08-26T04:51:40.443Z,96146.58
2022-08-26T04:54:08.930Z,96145.63
2022-08-26T04:56:38.618Z,96144.66
2022-08-26T04:59:16.629Z,96142.02
2022-08-26T05:01:46.655Z,96143.45
2022-08-26T05:04:16.261Z,96152.70
2022-08-26T05:06:47.790Z,96153.67
2022-08-26T05:09:16.513Z,96153.89
2022-08-26T05:11:48.529Z,96159.45
2022-08-26T05:14:22.493Z,96160.12
2022-08-26T05:16:50.786Z,96161.06
2022-08-26T05:19:19.573Z,96159.50
2022-08-26T05:21:48.898Z,96160.58
2022-08-26T05:24:18.019Z,96160.82
2022-08-26T05:26:48.085Z,96159.91
2022-08-26T05:29:16.933Z,96158.04
2022-08-26T05:31:45.241Z,96157.44
2022-08-26T05:34:13.699Z,96155.90
2022-08-26T05:36:42.497Z,96157.32
2022-08-26T05:39:10.866Z,96155.95
2022-08-26T05:41:41.334Z,96153.45
2022-08-26T05:44:12.887Z,96157.20
2022-08-26T05:46:44.901Z,96160.62
2022-08-26T05:49:14.557Z,96162.98
2022-08-26T05:51:47.746Z,96161.30
2022-08-26T05:54:21.874Z,96160.08
2022-08-26T05:56:51.439Z,96162.42
2022-08-26T05:59:24.242Z,96154.81
2022-08-26T06:01:55.255Z,96157.27
2022-08-26T06:04:28.609Z,96154.48
2022-08-26T06:07:00.887Z,96156.45
2022-08-26T06:09:29.139Z,96157.15
2022-08-26T06:11:58.994Z,96156.20
2022-08-26T06:14:30.823Z,96154.17
2022-08-26T06:16:59.073Z,96156.94
2022-08-26T06:19:32.754Z,96153.19
2022-08-26T06:22:23.291Z,96155.49
2022-08-26T06:25:13.227Z,96156.27
2022-08-26T06:27:41.605Z,96155.73
2022-08-26T06:30:10.694Z,96153.36
2022-08-26T06:32:38.919Z,96155.09
2022-08-26T06:35:07.320Z,96152.69
2022-08-26T06:37:41.236Z,96155.41
2022-08-26T06:40:10.004Z,96154.05
2022-08-26T06:42:39.943Z,96159.66
2022-08-26T06:45:08.624Z,96159.77
2022-08-26T06:47:37.215Z,96161.72
2022-08-26T06:50:05.650Z,96160.62
2022-08-26T06:52:33.832Z,96161.55
2022-08-26T06:55:03.328Z,96158.50
2022-08-26T06:57:33.091Z,96163.90
2022-08-26T07:00:10.806Z,96161.40
2022-08-26T07:02:39.525Z,96162.26
2022-08-26T07:05:08.038Z,96161.80
2022-08-26T07:07:37.683Z,96160.44
2022-08-26T07:10:08.702Z,96155.98
2022-08-26T07:12:37.182Z,96155.45
2022-08-26T07:15:06.272Z,96153.00
2022-08-26T07:17:36.302Z,96147.96
2022-08-26T07:20:07.638Z,96140.96
2022-08-26T07:22:37.342Z,96140.52
2022-08-26T07:25:09.486Z,96139.86
2022-08-26T07:27:38.386Z,96135.61
2022-08-26T07:30:07.669Z,96133.24
2022-08-26T07:32:37.736Z,96134.48
2022-08-26T07:35:06.486Z,96132.77
2022-08-26T07:37:35.591Z,96134.73
2022-08-26T07:40:09.570Z,96132.95
2022-08-26T07:42:37.891Z,96127.13
2022-08-26T07:45:06.660Z,96127.10
2022-08-26T07:47:35.406Z,96124.88
2022-08-26T07:50:04.047Z,96122.60
2022-08-26T07:52:34.459Z,96122.33
2022-08-26T07:55:02.777Z,96124.48
2022-08-26T07:57:31.068Z,96123.70
2022-08-26T08:00:00.013Z,96123.83
2022-08-26T08:02:29.350Z,96124.16
2022-08-26T08:04:58.675Z,96120.10
2022-08-26T08:07:44.190Z,96118.11
2022-08-26T08:10:15.890Z,96114.02
2022-08-26T08:12:44.711Z,96115.20
2022-08-26T08:15:13.984Z,96109.96
2022-08-26T08:17:43.706Z,96107.89
2022-08-26T08:20:13.743Z,96104.21
2022-08-26T08:22:43.360Z,96102.88
2022-08-26T08:25:12.599Z,96099.95
2022-08-26T08:27:42.604Z,96093.67
2022-08-26T08:30:13.915Z,96093.80
2022-08-26T08:32:43.834Z,96087.08
2022-08-26T08:35:14.254Z,96087.80
2022-08-26T08:37:44.075Z,96088.50
2022-08-26T08:40:18.571Z,96084.59
2022-08-26T08:42:49.974Z,96086.80
2022-08-26T08:45:22.500Z,96085.89
2022-08-26T08:47:54.626Z,96078.90
2022-08-26T08:50:23.012Z,96077.41
2022-08-26T08:53:00.236Z,96072.58
2022-08-26T08:55:31.645Z,96072.23
2022-08-26T08:58:06.293Z,96075.56
2022-08-26T09:00:44.417Z,96075.44
2022-08-26T09:03:35.758Z,96068.37
2022-08-26T09:06:04.236Z,96068.10
2022-08-26T09:08:35.992Z,96064.20
2022-08-26T09:11:04.622Z,96065.62
2022-08-26T09:13:36.113Z,96064.50
2022-08-26T09:16:31.504Z,96065.90
2022-08-26T09:19:19.354Z,96058.14
2022-08-26T09:21:55.193Z,96056.70
2022-08-26T09:24:28.621Z,96055.17
2022-08-26T09:26:59.424Z,96048.79
2022-08-26T09:29:27.697Z,96046.73
2022-08-26T09:32:19.466Z,96048.11
2022-08-26T09:34:54.656Z,96045.62
2022-08-26T09:37:38.045Z,96043.33
2022-08-26T09:40:27.397Z,96036.64
2022-08-26T09:43:23.040Z,96038.77
2022-08-26T09:45:59.429Z,96042.13
2022-08-26T09:48:32.696Z,96036.55
2022-08-26T09:51:06.227Z,96035.09
2022-08-26T09:53:40.202Z,96039.73
2022-08-26T09:56:12.342Z,96041.98
2022-08-26T09:58:42.300Z,96036.45
2022-08-26T10:01:23.467Z,96040.80
2022-08-26T10:03:52.161Z,96032.79
2022-08-26T10:06:23.113Z,96029.98
2022-08-26T10:08:57.856Z,96028.30
2022-08-26T10:11:42.770Z,96031.97
2022-08-26T10:14:11.485Z,96026.96
2022-08-26T10:16:39.678Z,96024.98
2022-08-26T10:19:19.038Z,96023.66
2022-08-26T10:21:54.212Z,96022.92
2022-08-26T10:24:26.270Z,96021.64
2022-08-26T10:27:15.055Z,96017.86
2022-08-26T10:29:46.063Z,96016.83
2022-08-26T10:32:28.160Z,96014.27
2022-08-26T10:34:56.729Z,96011.66
2022-08-26T10:37:31.416Z,96012.76
2022-08-26T10:40:23.986Z,96013.63
2022-08-26T10:42:55.099Z,96011.52
2022-08-26T10:45:25.935Z,96010.91
2022-08-26T10:48:00.172Z,96010.11
2022-08-26T10:50:39.473Z,96011.13
2022-08-26T10:53:07.670Z,96009.63
2022-08-26T10:55:48.429Z,96002.23
2022-08-26T10:58:16.571Z,95994.29
2022-08-26T11:01:40.874Z,95993.64
2022-08-26T11:04:35.103Z,95990.20
2022-08-26T11:07:22.114Z,95990.91
2022-08-26T11:09:51.473Z,95986.45
2022-08-26T11:12:34.724Z,95983.44
2022-08-26T11:15:11.834Z,95981.70
2022-08-26T11:17:45.019Z,95979.75
2022-08-26T11:20:16.286Z,95976.55
2022-08-26T11:22:48.006Z,95981.64
2022-08-26T11:25:18.193Z,95986.41
2022-08-26T11:27:51.704Z,95991.29
2022-08-26T11:30:20.422Z,95993.88
2022-08-26T11:32:56.448Z,95992.78
2022-08-26T11:35:24.950Z,95992.55
2022-08-26T11:38:02.226Z,95989.16
2022-08-26T11:40:35.521Z,95991.25
2022-08-26T11:43:07.685Z,95983.42
2022-08-26T11:45:44.099Z,95984.41
2022-08-26T11:48:23.837Z,95973.95
2022-08-26T11:50:55.392Z,95974.73
2022-08-26T11:53:24.390Z,95968.59
2022-08-26T11:55:56.221Z,95970.36
2022-08-26T11:58:27.100Z,95966.48
2022-08-26T12:00:59.980Z,95963.05
2022-08-26T12:03:36.304Z,95964.85
2022-08-26T12:06:12.019Z,95958.44
2022-08-26T12:08:44.258Z,95958.23
2022-08-26T12:11:20.169Z,95949.71
2022-08-26T12:14:15.533Z,95950.63
2022-08-26T12:16:44.211Z,95951.77
2022-08-26T12:19:27.767Z,95950.00
2022-08-26T12:22:00.630Z,95948.16
2022-08-26T12:24:29.065Z,95948.67
2022-08-26T12:27:17.959Z,95945.85
2022-08-26T12:29:59.913Z,95943.29
2022-08-26T12:32:29.021Z,95938.48
2022-08-26T12:34:58.512Z,95938.82
2022-08-26T12:37:27.365Z,95937.08
2022-08-26T12:39:56.341Z,95932.95
2022-08-26T12:42:40.516Z,95933.56
2022-08-26T12:45:09.048Z,95936.11
2022-08-26T12:47:42.661Z,95929.98
2022-08-26T12:50:18.447Z,95928.42
2022-08-26T12:53:03.184Z,95925.35
2022-08-26T12:55:43.986Z,95924.86
2022-08-26T12:58:23.676Z,95923.52
2022-08-26T13:01:12.154Z,95923.05
2022-08-26T13:03:45.758Z,95916.33
2022-08-26T13:06:22.942Z,95919.83
2022-08-26T13:08:53.224Z,95917.66
2022-08-26T13:11:21.395Z,95919.02
2022-08-26T13:13:53.596Z,95918.70
2022-08-26T13:16:22.385Z,95915.20
2022-08-26T13:18:52.265Z,95915.11
2022-08-26T13:21:22.549Z,95914.43
2022-08-26T13:23:51.145Z,95914.91
2022-08-26T13:26:19.845Z,95913.46
2022-08-26T13:28:48.625Z,95912.22
2022-08-26T13:31:30.516Z,95911.30
2022-08-26T13:33:59.126Z,95904.66
2022-08-26T13:36:27.344Z,95903.88
2022-08-26T13:38:55.715Z,95900.88
2022-08-26T13:41:29.550Z,95896.80
2022-08-26T13:43:59.459Z,95898.40
2022-08-26T13:46:28.489Z,95896.83
2022-08-26T13:48:57.870Z,95901.64
2022-08-26T13:51:27.038Z,95899.03
2022-08-26T13:53:55.554Z,95897.23
2022-08-26T13:56:24.778Z,95902.20
2022-08-26T13:58:53.093Z,95903.94
2022-08-26T14:01:21.394Z,95905.40
2022-08-26T14:03:53.725Z,95905.55
2022-08-26T14:06:22.333Z,95903.40
2022-08-26T14:08:50.495Z,95896.88
2022-08-26T14:11:19.200Z,95900.23
2022-08-26T14:13:47.944Z,95896.95
2022-08-26T14:16:24.455Z,95894.17
2022-08-26T14:18:53.297Z,95889.44
2022-08-26T14:21:22.049Z,95889.03
2022-08-26T14:23:50.330Z,95883.46
2022-08-26T14:26:27.768Z,95885.11
2022-08-26T14:28:59.080Z,95880.38
2022-08-26T14:31:29.627Z,95878.60
2022-08-26T14:33:59.873Z,95876.14
2022-08-26T14:36:36.239Z,95873.80
2022-08-26T14:39:09.736Z,95870.95
2022-08-26T14:41:53.968Z,95870.27
2022-08-26T14:44:28.041Z,95865.73
2022-08-26T14:46:56.300Z,95868.33
2022-08-26T14:49:25.448Z,95866.15
2022-08-26T14:51:54.623Z,95865.61
2022-08-26T14:54:22.795Z,95870.33
2022-08-26T14:56:52.285Z,95874.16
2022-08-26T14:59:28.294Z,95874.27
2022-08-26T15:01:57.180Z,95869.32
2022-08-26T15:04:25.469Z,95869.02
2022-08-26T15:06:54.803Z,95870.84
2022-08-26T15:09:23.504Z,95870.36
2022-08-26T15:11:53.273Z,95870.32
2022-08-26T15:14:22.139Z,95865.55
2022-08-26T15:16:52.452Z,95865.50
2022-08-26T15:19:21.166Z,95866.55
2022-08-26T15:21:49.677Z,95865.08
2022-08-26T15:24:19.634Z,95861.88
2022-08-26T15:26:48.999Z,95860.83
2022-08-26T15:29:17.814Z,95860.08
2022-08-26T15:31:46.100Z,95864.73
2022-08-26T15:34:16.794Z,95863.63
2022-08-26T15:36:46.898Z,95865.40
2022-08-26T15:39:16.471Z,95862.09
2022-08-26T15:41:44.939Z,95862.35
2022-08-26T15:44:14.471Z,95860.03
2022-08-26T15:46:43.247Z,95856.34
2022-08-26T15:49:17.553Z,95851.85
2022-08-26T15:51:48.260Z,95852.86
2022-08-26T15:54:17.427Z,95858.09
2022-08-26T15:56:47.983Z,95859.89
2022-08-26T15:59:16.556Z,95858.44
2022-08-26T16:01:44.993Z,95856.55
2022-08-26T16:04:14.246Z,95855.83
2022-08-26T16:06:43.660Z,95856.85
2022-08-26T16:09:11.812Z,95851.34
2022-08-26T16:11:43.005Z,95850.66
2022-08-26T16:14:11.442Z,95851.44
2022-08-26T16:16:40.625Z,95847.66
2022-08-26T16:19:08.827Z,95849.16
2022-08-26T16:21:37.502Z,95847.54
2022-08-26T16:24:06.006Z,95844.32
2022-08-26T16:26:35.492Z,95845.04
2022-08-26T16:29:05.468Z,95843.21
2022-08-26T16:31:33.742Z,95844.09
2022-08-26T16:34:01.940Z,95849.92
2022-08-26T16:36:30.178Z,95849.23
2022-08-26T16:38:58.358Z,95847.13
2022-08-26T16:41:28.079Z,95851.77
2022-08-26T16:43:56.546Z,95853.27
2022-08-26T16:46:26.470Z,95850.42
2022-08-26T16:48:56.223Z,95850.42
2022-08-26T16:51:27.196Z,95848.17
2022-08-26T16:53:56.581Z,95846.89
2022-08-26T16:56:33.416Z,95847.98
2022-08-26T16:59:04.401Z,95848.37
2022-08-26T17:01:32.582Z,95848.15
2022-08-26T17:04:00.754Z,95850.66
2022-08-26T17:06:28.935Z,95853.91
2022-08-26T17:08:57.135Z,95855.67
2022-08-26T17:11:25.320Z,95860.36
2022-08-26T17:13:53.511Z,95860.65
2022-08-26T17:16:26.484Z,95862.30
2022-08-26T17:18:58.668Z,95861.25
2022-08-26T17:21:28.090Z,95860.80
2022-08-26T17:23:56.703Z,95862.71
2022-08-26T17:26:25.557Z,95865.17
2022-08-26T17:28:54.104Z,95866.52
2022-08-26T17:31:23.630Z,95864.43
2022-08-26T17:33:53.744Z,95867.92
2022-08-26T17:36:28.098Z,95871.45
2022-08-26T17:38:57.601Z,95873.95
2022-08-26T17:41:26.488Z,95871.83
2022-08-26T17:43:54.768Z,95871.39
2022-08-26T17:46:23.165Z,95873.09
2022-08-26T17:48:51.531Z,95873.75
2022-08-26T17:51:19.823Z,95878.15
2022-08-26T17:53:48.690Z,95876.71
2022-08-26T17:56:18.764Z,95878.85
2022-08-26T17:58:48.224Z,95876.75
2022-08-26T18:01:21.103Z,95876.54
2022-08-26T18:03:50.074Z,95876.45
2022-08-26T18:06:19.570Z,95875.66
2022-08-26T18:08:48.508Z,95874.58
2022-08-26T18:11:18.430Z,95878.10
2022-08-26T18:13:47.765Z,95875.84
2022-08-26T18:16:17.831Z,95877.55
2022-08-26T18:18:47.014Z,95875.92
2022-08-26T18:21:17.072Z,95878.14
2022-08-26T18:23:46.222Z,95873.20
2022-08-26T18:26:19.146Z,95871.40
2022-08-26T18:28:47.327Z,95877.04
2022-08-26T18:31:15.797Z,95873.52
2022-08-26T18:33:44.558Z,95875.05
2022-08-26T18:36:20.482Z,95872.65
2022-08-26T18:38:50.315Z,95869.02
2022-08-26T18:41:21.092Z,95870.60
2022-08-26T18:43:50.652Z,95871.64
2022-08-26T18:46:20.309Z,95875.59
2022-08-26T18:48:50.995Z,95876.64
2022-08-26T18:51:21.773Z,95875.74
2022-08-26T18:53:50.073Z,95868.05
2022-08-26T18:56:18.879Z,95869.60
2022-08-26T18:58:47.516Z,95872.77
2022-08-26T19:01:16.469Z,95876.91
2022-08-26T19:03:45.587Z,95875.02
2022-08-26T19:06:14.883Z,95879.31
2022-08-26T19:08:44.731Z,95880.18
2022-08-26T19:11:14.030Z,95875.50
2022-08-26T19:13:43.248Z,95877.00
2022-08-26T19:16:23.230Z,95879.46
2022-08-26T19:18:53.007Z,95874.62
2022-08-26T19:21:22.586Z,95877.06
2022-08-26T19:23:51.580Z,95878.47
2022-08-26T19:26:19.683Z,95878.91
2022-08-26T19:28:49.643Z,95875.20
2022-08-26T19:31:17.911Z,95873.67
2022-08-26T19:33:46.116Z,95876.58
2022-08-26T19:36:17.828Z,95877.98
2022-08-26T19:38:46.403Z,95877.27
2022-08-26T19:41:15.875Z,95879.89
2022-08-26T19:43:44.031Z,95877.73
2022-08-26T19:46:23.796Z,95877.34
2022-08-26T19:48:55.272Z,95877.58
2022-08-26T19:51:25.898Z,95874.79
2022-08-26T19:53:55.546Z,95875.20
2022-08-26T19:56:24.005Z,95878.37
2022-08-26T19:58:52.151Z,95880.58
2022-08-26T20:01:20.376Z,95885.38
2022-08-26T20:03:49.348Z,95886.83
2022-08-26T20:06:18.027Z,95887.94
2022-08-26T20:08:46.337Z,95890.88
2022-08-26T20:11:16.410Z,95892.27
2022-08-26T20:13:45.636Z,95893.32
2022-08-26T20:16:14.298Z,95891.34
2022-08-26T20:19:02.010Z,95899.69
2022-08-26T20:21:33.295Z,95898.42
2022-08-26T20:24:06.099Z,95898.41
2022-08-26T20:26:36.120Z,95899.17
2022-08-26T20:29:04.897Z,95899.19
2022-08-26T20:31:33.067Z,95899.34
2022-08-26T20:34:01.601Z,95898.55
2022-08-26T20:36:30.023Z,95899.98
2022-08-26T20:38:58.533Z,95901.86
2022-08-26T20:41:26.679Z,95900.08
2022-08-26T20:43:55.741Z,95895.11
2022-08-26T20:46:25.037Z,95894.06
2022-08-26T20:48:54.044Z,95893.25
2022-08-26T20:51:23.797Z,95895.01
2022-08-26T20:53:51.976Z,95897.31
2022-08-26T20:56:23.929Z,95896.93
2022-08-26T20:58:54.297Z,95897.18
2022-08-26T21:01:23.955Z,95900.41
2022-08-26T21:03:53.121Z,95904.54
2022-08-26T21:06:21.372Z,95905.02
2022-08-26T21:08:51.136Z,95907.63
2022-08-26T21:11:19.848Z,95912.68
2022-08-26T21:14:04.363Z,95915.59
2022-08-26T21:16:39.521Z,95915.66
2022-08-26T21:19:10.777Z,95917.13
2022-08-26T21:21:39.230Z,95915.70
2022-08-26T21:24:07.913Z,95913.87
2022-08-26T21:26:36.453Z,95913.73
2022-08-26T21:29:05.439Z,95916.32
2022-08-26T21:31:33.655Z,95914.04
2022-08-26T21:34:01.853Z,95908.65
2022-08-26T21:36:30.122Z,95908.92
2022-08-26T21:38:58.461Z,95906.48
2022-08-26T21:41:27.298Z,95906.39
2022-08-26T21:43:59.308Z,95903.69
2022-08-26T21:46:29.302Z,95905.58
2022-08-26T21:48:59.045Z,95904.55
2022-08-26T21:51:28.674Z,95903.90
2022-08-26T21:53:57.744Z,95904.38
2022-08-26T21:56:27.619Z,95908.42
2022-08-26T21:58:56.552Z,95911.82
2022-08-26T22:01:26.496Z,95916.15
2022-08-26T22:03:54.899Z,95910.63
2022-08-26T22:06:24.653Z,95909.78
2022-08-26T22:08:53.298Z,95912.63
2022-08-26T22:11:21.566Z,95911.14
2022-08-26T22:13:49.947Z,95914.90
2022-08-26T22:16:18.300Z,95917.16
2022-08-26T22:18:46.452Z,95918.20
2022-08-26T22:21:16.965Z,95915.73
2022-08-26T22:23:45.512Z,95918.61
2022-08-26T22:26:15.216Z,95912.29
2022-08-26T22:28:58.539Z,95910.68
2022-08-26T22:31:33.674Z,95912.76
2022-08-26T22:34:11.190Z,95907.30
2022-08-26T22:36:44.027Z,95906.97
2022-08-26T22:39:16.567Z,95901.61
2022-08-26T22:41:45.473Z,95905.98
2022-08-26T22:44:13.591Z,95904.09
2022-08-26T22:46:42.202Z,95902.29
2022-08-26T22:49:11.536Z,95903.15
2022-08-26T22:51:39.788Z,95902.71
2022-08-26T22:54:08.106Z,95902.96
2022-08-26T22:56:36.690Z,95904.44
2022-08-26T22:59:06.919Z,95902.73
2022-08-26T23:01:36.894Z,95904.19
2022-08-26T23:04:06.443Z,95903.85
2022-08-26T23:06:36.025Z,95905.78
2022-08-26T23:09:04.888Z,95908.70
2022-08-26T23:11:33.218Z,95909.80
2022-08-26T23:14:06.188Z,95913.02
2022-08-26T23:16:39.104Z,95919.60
2022-08-26T23:19:08.440Z,95918.55
2022-08-26T23:21:36.667Z,95917.94
2022-08-26T23:24:05.473Z,95918.48
2022-08-26T23:26:34.441Z,95917.21
2022-08-26T23:29:02.925Z,95916.40
2022-08-26T23:31:31.651Z,95913.15
2022-08-26T23:34:18.623Z,95907.48
2022-08-26T23:36:48.055Z,95904.98
2022-08-26T23:39:16.280Z,95903.05
2022-08-26T23:41:44.646Z,95904.20
2022-08-26T23:44:13.162Z,95904.36
2022-08-26T23:46:41.338Z,95904.72
2022-08-26T23:49:09.473Z,95902.73
2022-08-26T23:51:57.365Z,95896.73
2022-08-26T23:54:25.760Z,95898.82
2022-08-26T23:56:53.881Z,95902.80
2022-08-26T23:59:22.083Z,95900.73
